首页
METAR-TAF:

METAR-TAF

机场 :

杰克逊维尔, 佛罗里达州, 美国

纬度: 30-20-10N, 经度: 081-30-53W, 海拔: 12米

当前天气观测

该预报发布于34分钟前的00:53 UTC
静风
温度 17°C
湿度 88%
气压 1019 hPa
能見度: 16.1公里
天空无云

METAR: KCRG 120053Z 00000KT 10SM CLR 17/15 A3008 RMK AO2 SLP185 T01670150

时间: 20:27 (01:27 UTC)

预报

该预报发布于1小时和48分钟前的23:39 UTC
预报有效从12日的 00点(UTC)到 12日的 24点(UTC)
风速3节,风向多变
能見度: 10公里
少量云层高于5000英尺
多云层高于25000英尺
从 12日的 0900点(UTC)
风速节,风向
能見度: 8.0公里
少量云层高于100英尺
多云层高于20000英尺
轻雾
从 12日的 1400点(UTC)
风速5节,风向西南
能見度: 10公里
散云层高于3000英尺
多云层高于20000英尺
从 12日的 1700点(UTC)
风速10节,风向西转西南
能見度: 10公里
散云层高于3000英尺
多云层高于8000英尺
附近有阵雨
从 12日的 2100点(UTC)
风速10节,风向西北
能見度: 9.7公里
散云层高于1000英尺
阴天层高于1500英尺
小雨

TAF: KCRG 112339Z 1200/1224 VRB03KT P6SM FEW050 BKN250 FM120900 00000KT 5SM BR FEW001 BKN200 FM121400 23005KT P6SM SCT030 BKN200 FM121700 25010KT P6SM VCSH SCT030 BKN080 FM122100 31010KT 6SM -RA SCT010 OVC015

超过4000个机场的气象观测和天气预报(METAR&TAF报告)。

可查询的气象台以黄色和红色小点在地图上表示。

将鼠标移到小点上方,可查看气象台名称。

然后点击查看天气观测和预报。

如需切换地图:点击带黑十字的绿色按钮放大地图;点击带横线的绿色按钮缩小地图;或者点击绿色箭头查看邻近地区的地图。


METAR-TAF: